Bellevue, Iowa
Current Conditions -  °F | °C
As of 2:53 AM on Friday 31 Oct 2014 (Local Time) from KDBQ Reporting Station
Overcast Overcast  
Wind Chill: 26°   Ceiling: 4600
Heat Index: 38°   Visibility: 10mi
Dew Point: 24°   Wind: 30mph
Humidity: 57%   Direction: 350°N
Pressure: 30.16"   Gusts: 39mph
Location:  42.26°N, 90.42°W
Report Text: KDBQ 310753Z AUTO 35026G34KT 10SM OVC046 03/M04 A3016 RMK AO2 PK WND 34034/0753 SLP220 T00331044
Loading
Personal Weather Stations






























Interactive Weather Map
Tropical Storm Tracking
New forecast layout! Learn more

10-Day Weather Forecast

Advertisements
Track Severe Weather on mobile